Ed's Weather Station

Ed's Weather Station
Located south of Fulton, MO
Lat. 38.75234 N
Lon. 91.96758 W
Elevation 787 ft

GR3 Radar

Current 24 Hours Yesterday Last 48 Hours Last 72 Hours Last 30 Days Yearly Rainfall Yearly Temp Trends Monthly Wind Direction Last 30 Days Temperature Solar Data
Highs and Lows Trends Sun & Moon Rise\Set Times Moon\Solar Info
Local Weather Advisories Area Forecast Discussion Hazardous Weather Outlook U.S. Severe Weather Storm Prediction Center
All Time Records Monthly Records Yearly Records
Weather Gauges MW Weather Network
Local Area Conditions Printable Weather Flyer MO River Information
About Ed's Weather Weather Station Status Weather Graphic Personal Weather Sites
Kansas City NEXRAD Radar Local/Regional Radar Satellite Images
Weather Underground Data Rain Detail Chart
NWS Forecast Details Ed's Forecast Details UV Forecast Pollen Forecast Space Weather
Member of the following organizations:





Local Links:
Callaway County Sheriff

Eds Weather Station - WU Station History
Station Historical Data
 
Daily Summary for April 26, 2018 Units:  English    Metric   Both
« Previous Day
Next Day »
Daily Weekly Monthly Yearly Custom
  Current: High: Low: Average:
Temperature: 46.8 °F TemperatureF °F 46.8 °F 48.2 °F
Dew Point: 45.7 °F DewpointF °F 45.5 °F 47 °F
Humidity: 96% Humidity% 95% 94%
Wind Speed: 0.0mph WindSpeedMPHmph 0.0mph 0.5mph
Wind Gust: 0.0mph WindSpeedGustMPHmph - -
WindCalm - - NW
Pressure: 29.91 in PressureIn in 29.90 in -
Precipitation: 0.04 in      
Historical Graphs
 
 
Tabular Data for April 26, 2018
Time Temperature Dew Point Pressure Wind Wind Speed Wind Gust Humidity Rainfall Rate (Hourly) solar Conditions
TemperatureF °F DewpointF °F PressureIn in Calm     Humidity% HourlyPrecipIn in SolarRadiationWatts/m^2 W/m2 Conditions
00:00 50.2 °F 48.8 °F 29.96 in Calm     95% 0.02 in 0.0 W/m2 -RA
00:05 50.2 °F 48.8 °F 29.96 in Calm     95% 0.03 in 0.0 W/m2 -RA
00:10 50.2 °F 49.1 °F 29.95 in Calm     96% 0.03 in 0.0 W/m2 -RA
00:15 50.2 °F 49.1 °F 29.95 in Calm     96% 0.03 in 0.0 W/m2 -RA
00:20 50.1 °F 48.7 °F 29.96 in Calm     95% 0.03 in 0.0 W/m2 -RA
00:25 50.2 °F 48.8 °F 29.96 in Calm     95% 0.02 in 0.0 W/m2 -RA
00:30 50.1 °F 48.7 °F 29.96 in Calm     95% 0.03 in 0.0 W/m2 -RA
00:35 50.1 °F 48.7 °F 29.95 in Calm     95% 0.03 in 0.0 W/m2 -RA
00:40 50.1 °F 48.7 °F 29.95 in WNW 1.2 mph   95% 0.03 in 0.0 W/m2 -RA
00:45 50.1 °F 48.7 °F 29.95 in Calm     95% 0.03 in 0.0 W/m2 -RA
00:50 50.1 °F 48.7 °F 29.95 in WNW 1.2 mph 1.2 mph 95% 0.04 in 0.0 W/m2 -RA
00:55 50.0 °F 48.6 °F 29.95 in Calm     95% 0.03 in 0.0 W/m2 -RA
01:00 50.0 °F 48.6 °F 29.95 in Calm     95% 0.03 in 0.0 W/m2 -RA
01:05 50.0 °F 48.6 °F 29.95 in Calm     95% 0.02 in 0.0 W/m2 -RA
01:10 50.0 °F 48.9 °F 29.95 in Calm     96% 0.02 in 0.0 W/m2 -RA
01:15 50.0 °F 48.9 °F 29.94 in WNW 1.2 mph   96% 0.02 in 0.0 W/m2 -RA
01:20 49.9 °F 48.8 °F 29.94 in Calm     96% 0.02 in 0.0 W/m2 -RA
01:25 49.9 °F 48.8 °F 29.94 in WNW 3.0 mph 3.0 mph 96% 0.02 in 0.0 W/m2 -RA
01:30 49.8 °F 48.7 °F 29.94 in WNW 1.2 mph   96% 0.01 in 0.0 W/m2 -RA
01:35 49.8 °F 48.7 °F 29.94 in Calm     96% 0.02 in 0.0 W/m2 -RA
01:40 49.7 °F 48.6 °F 29.94 in WNW 2.3 mph   96% 0.02 in 0.0 W/m2 -RA
01:43 49.7 °F 48.6 °F 29.94 in WNW 1.2 mph 1.2 mph 96% 0.02 in 0.0 W/m2 -RA
01:48 49.7 °F 48.6 °F 29.93 in Calm     96% 0.01 in 0.0 W/m2 -RA
01:53 49.7 °F 48.6 °F 29.93 in Calm     96% 0.01 in 0.0 W/m2 -RA
01:58 49.6 °F 48.5 °F 29.93 in Calm     96% 0.01 in 0.0 W/m2 -RA
02:03 49.6 °F 48.5 °F 29.93 in Calm     96% 0.01 in 0.0 W/m2 OVC
02:08 49.6 °F 48.5 °F 29.93 in Calm     96% 0.01 in 0.0 W/m2 OVC
02:13 49.6 °F 48.5 °F 29.92 in Calm     96% 0.01 in 0.0 W/m2 OVC
02:18 49.6 °F 48.5 °F 29.92 in WNW 1.2 mph   96% 0.01 in 0.0 W/m2 OVC
02:23 49.5 °F 48.4 °F 29.92 in WNW 1.2 mph   96% 0.01 in 0.0 W/m2 OVC
02:28 49.4 °F 48.3 °F 29.92 in WNW 1.2 mph 1.2 mph 96% 0.01 in 0.0 W/m2 OVC
02:33 49.3 °F 48.2 °F 29.92 in Calm     96% 0.01 in 0.0 W/m2 OVC
02:38 49.2 °F 48.1 °F 29.92 in WNW 1.2 mph   96% 0.00 in 0.0 W/m2 OVC
02:43 49.1 °F 48.0 °F 29.91 in NW 2.3 mph 2.3 mph 96% 0.00 in 0.0 W/m2 OVC
02:48 49.0 °F 47.9 °F 29.91 in NW 1.0 mph 1.0 mph 96% 0.00 in 0.0 W/m2 OVC
02:53 48.8 °F 47.4 °F 29.91 in NW 1.2 mph 1.2 mph 95% 0.00 in 0.0 W/m2 OVC
02:58 48.7 °F 47.3 °F 29.91 in Calm     95% 0.00 in 0.0 W/m2 OVC
03:03 48.5 °F 47.1 °F 29.91 in Calm     95% 0.00 in 0.0 W/m2 OVC
03:08 48.3 °F 46.9 °F 29.90 in Calm     95% 0.00 in 0.0 W/m2 OVC
03:13 48.1 °F 46.7 °F 29.90 in Calm     95% 0.00 in 0.0 W/m2 OVC
03:18 47.9 °F 46.5 °F 29.90 in Calm     95% 0.00 in 0.0 W/m2 OVC
03:23 47.9 °F 46.5 °F 29.90 in Calm     95% 0.00 in 0.0 W/m2 OVC
03:28 47.8 °F 46.7 °F 29.90 in Calm     96% 0.00 in 0.0 W/m2 OVC
03:34 47.8 °F 46.4 °F 29.90 in Calm     95% 0.00 in 0.0 W/m2 OVC
03:39 47.7 °F 46.3 °F 29.90 in Calm     95% 0.00 in 0.0 W/m2 OVC
03:44 47.6 °F 46.5 °F 29.90 in Calm     96% 0.00 in 0.0 W/m2 OVC
03:49 47.4 °F 46.3 °F 29.90 in Calm     96% 0.00 in 0.0 W/m2 OVC
03:54 47.2 °F 46.1 °F 29.90 in Calm     96% 0.00 in 0.0 W/m2 OVC
03:59 47.0 °F 45.6 °F 29.90 in NW 3.0 mph 3.0 mph 95% 0.00 in 0.0 W/m2 OVC
04:04 46.9 °F 45.5 °F 29.91 in NW 2.3 mph 2.3 mph 95% 0.00 in 0.0 W/m2 BKN
04:09 46.8 °F 45.7 °F 29.91 in Calm     96% 0.00 in 0.0 W/m2 BKN
Fulton, MO, USA
Compliments of Weather Underground - 768 kb